LOW weather

Louisa County Airport/Freeman Field
Louisa, Virginia, United States

Public forecast

Using degrees Fahrenheit for public forecast. Weather courtesy of forecast.io.

Current aviation weather report (METAR) for Louisa County Airport/Freeman Field

Retrieved 2019/11/18 07:35 UTC (10 minutes ago):

KLKU 180735Z AUTO 35008KT 10SM OVC013 03/01 A2996 RMK AO2 T00330007

Closest aviation forecast (TAF) to Louisa County Airport/Freeman Field

Closest forecast is Charlottesville Albemarle Airport, 24.1 nm (44.6 km) WNW. Retrieved 2019/11/18 06:42 UTC (1 hour ago):

TAF KCHO 180541Z 1806/1906 VRB03KT P6SM SCT008 BKN015 OVC025 FM181600 VRB03KT P6SM SCT025 OVC050